Gennaro Ievoli — 9HA3007 — position and weather

sailwx.info

Track history (hours):
 
Tides and Currents Weather Stations Pressure Air Temp Water Temp Dewpoint Dewpoint Depression Visibility Wind Speed Wind Dir Waves Ship Positions

Gennaro Ievoli

Last reported at 2016-May-01 08:33 UTC. Time now 2016-May-06 20:39 UTC.
Position N 01°14' E 103°59'.

Length 171 m; draft 9.2 m.

Type: Ship (hazmat cat B). MMSI: 229031000.

Date/timePositionNaut miles runAvg speedWind from/ knotsBaromVisibWave heightAir tempDewpointWater temp
2016-May-01 08:33N 01°14' E 103°59'1313.3
2016-May-01 07:33N 01°09' E 103°47'1212.3
2016-May-01 06:32N 01°05' E 103°35'8 8.1
2016-May-01 05:33N 01°12' E 103°39'3 2.7
2016-May-01 04:28N 01°12' E 103°42'0 0.0
2016-May-01 03:27N 01°12' E 103°42'0 0.0
2016-May-01 02:21N 01°12' E 103°42'0 0.0
2016-May-01 01:27N 01°12' E 103°42'0 0.1
2016-May-01 00:33N 01°12' E 103°42'0 0.0
2016-Apr-30 23:32N 01°12' E 103°42'0 0.0
2016-Apr-30 22:32N 01°12' E 103°42'0 0.0
2016-Apr-30 21:28N 01°12' E 103°42'0 0.0
2016-Apr-30 20:28N 01°12' E 103°42'0 0.0
2016-Apr-30 19:30N 01°12' E 103°42'4 4.0
2016-Apr-30 18:33N 01°15' E 103°44'1 1.1
2016-Apr-30 17:28N 01°16' E 103°44'0 0.0
2016-Apr-30 16:31N 01°16' E 103°44'0 0.0
2016-Apr-30 15:33N 01°16' E 103°44'0 0.0
2016-Apr-30 14:33N 01°16' E 103°44'0 0.0
2016-Apr-30 11:28N 01°16' E 103°44'0 0.0
2016-Apr-30 10:16N 01°16' E 103°44'0 0.0
2016-Apr-30 09:24N 01°16' E 103°44'0 0.0
2016-Apr-30 08:33N 01°16' E 103°44'0 0.0
2016-Apr-30 07:33N 01°16' E 103°44'0 0.0
2016-Apr-30 06:32N 01°16' E 103°44'0 0.0
2016-Apr-30 04:28N 01°16' E 103°44'0 0.0
2016-Apr-30 03:22N 01°16' E 103°44'0 0.3
2016-Apr-30 02:33N 01°16' E 103°45'0 0.2
2016-Apr-30 01:29N 01°16' E 103°44'0 0.0
2016-Apr-30 00:28N 01°16' E 103°44'0 0.0
2016-Apr-29 23:25N 01°16' E 103°44'0 0.0
2016-Apr-29 22:30N 01°16' E 103°44'0 0.0
2016-Apr-29 21:30N 01°16' E 103°44'0 0.0
2016-Apr-29 20:29N 01°16' E 103°44'0 0.0
2016-Apr-29 19:29N 01°16' E 103°44'0 0.0
2016-Apr-29 18:29N 01°16' E 103°44'0 0.0
2016-Apr-29 17:32N 01°16' E 103°44'0 0.0
2016-Apr-29 16:28N 01°16' E 103°44'0 0.0
2016-Apr-29 15:28N 01°16' E 103°44'0 0.0
2016-Apr-29 14:28N 01°16' E 103°44'0 0.0
2016-Apr-29 13:33N 01°16' E 103°44'0 0.0
2016-Apr-29 12:18N 01°16' E 103°44'0 0.0
2016-Apr-29 11:33N 01°16' E 103°44'0 0.0
2016-Apr-29 10:29N 01°16' E 103°44'0 0.0
2016-Apr-29 09:29N 01°16' E 103°44'0 0.0
2016-Apr-29 08:33N 01°16' E 103°44'0 0.0
2016-Apr-29 07:33N 01°16' E 103°44'0 0.1
2016-Apr-29 06:33N 01°16' E 103°44'4 4.0
2016-Apr-29 05:33N 01°13' E 103°42'3 3.4
2016-Apr-29 04:33N 01°14' E 103°38'0 0.1
2016-Apr-29 03:33N 01°14' E 103°38'0 0.0
2016-Apr-29 02:33N 01°14' E 103°38'0 0.0
2016-Apr-29 01:33N 01°14' E 103°38'0 0.1
2016-Apr-29 00:34N 01°14' E 103°38'1 0.9
2016-Apr-28 23:33N 01°13' E 103°39'6 6.4
2016-Apr-28 22:33N 01°11' E 103°33'  
Track history (hours):
 
Tides and Currents Weather Stations Pressure Air Temp Water Temp Dewpoint Dewpoint Depression Visibility Wind Speed Wind Dir Waves Ship Positions

Gennaro Ievoli

Last reported at 2016-May-01 08:33 UTC. Time now 2016-May-06 20:39 UTC.
Position N 01°14' E 103°59'.

Length 171 m; draft 9.2 m.

Type: Ship (hazmat cat B). MMSI: 229031000.

Date/timePositionNaut miles runAvg speedWind from/ knotsBaromVisibWave heightAir tempDewpointWater temp
2016-May-01 08:33N 01°14' E 103°59'1313.3
2016-May-01 07:33N 01°09' E 103°47'1212.3
2016-May-01 06:32N 01°05' E 103°35'8 8.1
2016-May-01 05:33N 01°12' E 103°39'3 2.7
2016-May-01 04:28N 01°12' E 103°42'0 0.0
2016-May-01 03:27N 01°12' E 103°42'0 0.0
2016-May-01 02:21N 01°12' E 103°42'0 0.0
2016-May-01 01:27N 01°12' E 103°42'0 0.1
2016-May-01 00:33N 01°12' E 103°42'0 0.0
2016-Apr-30 23:32N 01°12' E 103°42'0 0.0
2016-Apr-30 22:32N 01°12' E 103°42'0 0.0
2016-Apr-30 21:28N 01°12' E 103°42'0 0.0
2016-Apr-30 20:28N 01°12' E 103°42'0 0.0
2016-Apr-30 19:30N 01°12' E 103°42'4 4.0
2016-Apr-30 18:33N 01°15' E 103°44'1 1.1
2016-Apr-30 17:28N 01°16' E 103°44'0 0.0
2016-Apr-30 16:31N 01°16' E 103°44'0 0.0
2016-Apr-30 15:33N 01°16' E 103°44'0 0.0
2016-Apr-30 14:33N 01°16' E 103°44'0 0.0
2016-Apr-30 11:28N 01°16' E 103°44'0 0.0
2016-Apr-30 10:16N 01°16' E 103°44'0 0.0
2016-Apr-30 09:24N 01°16' E 103°44'0 0.0
2016-Apr-30 08:33N 01°16' E 103°44'0 0.0
2016-Apr-30 07:33N 01°16' E 103°44'0 0.0
2016-Apr-30 06:32N 01°16' E 103°44'0 0.0
2016-Apr-30 04:28N 01°16' E 103°44'0 0.0
2016-Apr-30 03:22N 01°16' E 103°44'0 0.3
2016-Apr-30 02:33N 01°16' E 103°45'0 0.2
2016-Apr-30 01:29N 01°16' E 103°44'0 0.0
2016-Apr-30 00:28N 01°16' E 103°44'0 0.0
2016-Apr-29 23:25N 01°16' E 103°44'0 0.0
2016-Apr-29 22:30N 01°16' E 103°44'0 0.0
2016-Apr-29 21:30N 01°16' E 103°44'0 0.0
2016-Apr-29 20:29N 01°16' E 103°44'0 0.0
2016-Apr-29 19:29N 01°16' E 103°44'0 0.0
2016-Apr-29 18:29N 01°16' E 103°44'0 0.0
2016-Apr-29 17:32N 01°16' E 103°44'0 0.0
2016-Apr-29 16:28N 01°16' E 103°44'0 0.0
2016-Apr-29 15:28N 01°16' E 103°44'0 0.0
2016-Apr-29 14:28N 01°16' E 103°44'0 0.0
2016-Apr-29 13:33N 01°16' E 103°44'0 0.0
2016-Apr-29 12:18N 01°16' E 103°44'0 0.0
2016-Apr-29 11:33N 01°16' E 103°44'0 0.0
2016-Apr-29 10:29N 01°16' E 103°44'0 0.0
2016-Apr-29 09:29N 01°16' E 103°44'0 0.0
2016-Apr-29 08:33N 01°16' E 103°44'0 0.0
2016-Apr-29 07:33N 01°16' E 103°44'0 0.1
2016-Apr-29 06:33N 01°16' E 103°44'4 4.0
2016-Apr-29 05:33N 01°13' E 103°42'3 3.4
2016-Apr-29 04:33N 01°14' E 103°38'0 0.1
2016-Apr-29 03:33N 01°14' E 103°38'0 0.0
2016-Apr-29 02:33N 01°14' E 103°38'0 0.0
2016-Apr-29 01:33N 01°14' E 103°38'0 0.1
2016-Apr-29 00:34N 01°14' E 103°38'1 0.9
2016-Apr-28 23:33N 01°13' E 103°39'6 6.4
2016-Apr-28 22:33N 01°11' E 103°33'  

Dump ship's entire track history